Austell, GA (30168)

2:21 PM EST on February 12, 2016 (GMT -0500)
Werner Ent. Atlanta | | Change Station
CLOSE
Current Station
Personal Weather Station
Location: Lithia Springs, GA
Elevation: 912 ft
Nearby Weather Stations

Elev 912 ft 33.77 °N, 84.62 °W | Updated 6 minutes ago

Clear
Clear
60.8 °F
Feels Like 60.8 °F
N
3.0
Wind Variable Wind from WSW
Gusts 19.0 mph

Today
High -- | Low -- °F
--% Chance of Precip.
Yesterday
High -- | Low -- °F
Precip. -- in
Pressure 30.06 in
Visibility 10.0 miles
Clouds Clear
Dew Point 35 °F
Humidity 39%
Rainfall 0.00 in
Snow Depth Not available.
7:26 AM 6:19 PM
Waxing Crescent, 23% visible
METAR KFTY 121853Z 27008KT 10SM CLR 16/M01 A3005 RMK AO2 SLP177 T01561006
Pressure 30.06 in
Visibility 10.0 miles
Clouds Clear
Dew Point 35 °F
Humidity 39%
Rainfall 0.00 in
Snow Depth Not available.
7:26 AM 6:19 PM
Waxing Crescent, 23% visible
METAR KFTY 121853Z 27008KT 10SM CLR 16/M01 A3005 RMK AO2 SLP177 T01561006

10-Day Weather Forecast

Almanac

Astronomy

Feb. 12, 2016 Rise Set
Actual Time
Civil Twilight
Nautical Twilight
Astronomical Twilight
Moon
Length of Visible Light
Length of Day
Tomorrow will be .
, % of the Moon is Illuminated

Today's Extremes

State Highs State Lows

Community

WunderPhotos

Upload Photos

1,892,376 photos uploaded!

WunderBlog® & News

Nearby

Air Quality

  Air Quality AQ Index Pollutant
Not available.

Snow Depth

Station Depth Elevation

Earthquake Activity

City Distance Mag. Time & Date
Minimum magnitude displayed is 2.5.

Coastal Water Temperatures

Place Temperature

Stations

Nearby Weather Stations

Station Location Temp. Windchill Dew Point Humidity Wind Precip. Elev Updated Type
                   

Watches & Warnings

There are currently no watches in effect.